Acton, CA

8:57 AM PDT on October 17, 2019 (GMT -0700)
Bridle Path | | Change Station
Active Advisory: Wind Advisory

Elev 2920 ft 34.48 °N, 118.17 °W | Updated 8 seconds ago

Clear
Clear
65.8 °F
Feels Like 65.8 °F
N
0
Wind Variable Wind from East
Gusts 0.0 mph

Today
High -- | Low -- °F
--% Chance of Precip.
Yesterday
High -- | Low -- °F
Precip. -- in
Pressure 29.79 in
Visibility 10.0 miles
Clouds Clear
Dew Point 39 °F
Humidity 37%
Rainfall 0.00 in
Snow Depth Not available.
6:59 AM 6:15 PM
Waning Gibbous, 87% visible
METAR KPMD 171553Z 00000KT 10SM CLR 19/02 A2985 RMK AO2 SLP088 T01890017
Pressure 29.79 in
Visibility 10.0 miles
Clouds Clear
Dew Point 39 °F
Humidity 37%
Rainfall 0.00 in
Snow Depth Not available.
6:59 AM 6:15 PM
Waning Gibbous, 87% visible
METAR KPMD 171553Z 00000KT 10SM CLR 19/02 A2985 RMK AO2 SLP088 T01890017

Get Your Daily Forecast Email!

Thanks for signing up!

Be on the lookout for a verification email in your inbox.

You'll start receiving severe weather alerts in your inbox..

×

10-Day Weather Forecast

Almanac

Astronomy

Oct. 17, 2019 Rise Set
Actual Time
Civil Twilight
Nautical Twilight
Astronomical Twilight
Moon
Length of Visible Light
Length of Day
Tomorrow will be .
, % of the Moon is Illuminated

Today's Extremes

State Highs State Lows

Community

WunderPhotos

Category 6

Welcome to Category 6. This is the collective home for Weather Underground's featured writeups by Dr. Jeff Masters (right), Bob Henson (left), Chris Burt, and other regular contributors.

Nearby

Air Quality

  Air Quality AQ Index Pollutant
Not available.

Snow Depth

Station Depth Elevation

Earthquake Activity

City Distance Mag. Time & Date
Minimum magnitude displayed is 2.5.

Coastal Water Temperatures

Place Temperature

Stations

Nearby Weather Stations

Station Location Temp. Windchill Dew Point Humidity Wind Precip. Elev Updated Type
                   

Watches & Warnings

Wind Advisory
Issued: 2:40 AM PDT Oct. 17, 2019 – National Weather Service

... Wind Advisory in effect from 5 PM this afternoon to 8 am PDT
Friday...

* what... northwest to north winds 20 to 30 mph with gusts up to
50 mph expected.

* Where... through the Interstate 5 corridor of the Los Angeles
County mountains excluding the Santa Monica range.

* When... from 5 PM this afternoon to 8 am PDT Friday.

* Impacts... gusty winds will make driving difficult and could
blow around unsecured objects. Tree limbs could be blown down
and a few power outages may result.

* Additional details... winds are not expected to be as strong
across the eastern San Gabriel Mountains.

Precautionary/preparedness actions...

Use extra caution when driving, especially if operating a high
profile vehicle. Secure outdoor objects.